sensor_id;sensor_type;location;lat;lon;timestamp;temperature;humidity
1297;DHT22;641;48.492;9.184;2024-03-25T00:00:13;4.30;99.90
1297;DHT22;641;48.492;9.184;2024-03-25T00:02:41;4.20;99.90
1297;DHT22;641;48.492;9.184;2024-03-25T00:05:07;4.20;99.90
1297;DHT22;641;48.492;9.184;2024-03-25T00:07:35;4.20;99.90
1297;DHT22;641;48.492;9.184;2024-03-25T00:10:01;4.20;99.90
1297;DHT22;641;48.492;9.184;2024-03-25T00:12:26;4.20;99.90
1297;DHT22;641;48.492;9.184;2024-03-25T00:14:52;4.20;99.90
1297;DHT22;641;48.492;9.184;2024-03-25T00:17:18;4.20;99.90
1297;DHT22;641;48.492;9.184;2024-03-25T00:19:45;4.20;99.90
1297;DHT22;641;48.492;9.184;2024-03-25T00:22:19;4.30;99.90
1297;DHT22;641;48.492;9.184;2024-03-25T00:24:48;4.20;99.90
1297;DHT22;641;48.492;9.184;2024-03-25T00:27:16;4.30;99.90
1297;DHT22;641;48.492;9.184;2024-03-25T00:29:43;4.20;99.90
1297;DHT22;641;48.492;9.184;2024-03-25T00:32:10;4.20;99.90
1297;DHT22;641;48.492;9.184;2024-03-25T00:34:37;4.20;99.90
1297;DHT22;641;48.492;9.184;2024-03-25T00:37:03;4.30;99.90
1297;DHT22;641;48.492;9.184;2024-03-25T00:39:29;4.30;99.90
1297;DHT22;641;48.492;9.184;2024-03-25T00:41:57;4.20;99.90
1297;DHT22;641;48.492;9.184;2024-03-25T00:44:23;4.20;99.90
1297;DHT22;641;48.492;9.184;2024-03-25T00:46:49;4.20;99.90
1297;DHT22;641;48.492;9.184;2024-03-25T00:49:15;4.20;99.90
1297;DHT22;641;48.492;9.184;2024-03-25T00:51:40;4.20;99.90
1297;DHT22;641;48.492;9.184;2024-03-25T00:54:06;4.20;99.90
1297;DHT22;641;48.492;9.184;2024-03-25T00:56:32;4.20;99.90
1297;DHT22;641;48.492;9.184;2024-03-25T00:58:58;4.20;99.90
1297;DHT22;641;48.492;9.184;2024-03-25T01:01:31;4.20;99.90
1297;DHT22;641;48.492;9.184;2024-03-25T01:03:57;4.20;99.90
1297;DHT22;641;48.492;9.184;2024-03-25T01:06:23;4.20;99.90
1297;DHT22;641;48.492;9.184;2024-03-25T01:08:50;4.20;99.90
1297;DHT22;641;48.492;9.184;2024-03-25T01:11:15;4.20;99.90
1297;DHT22;641;48.492;9.184;2024-03-25T01:13:41;4.20;99.90
1297;DHT22;641;48.492;9.184;2024-03-25T01:16:07;4.20;99.90
1297;DHT22;641;48.492;9.184;2024-03-25T01:18:33;4.20;99.90
1297;DHT22;641;48.492;9.184;2024-03-25T01:20:58;4.20;99.90
1297;DHT22;641;48.492;9.184;2024-03-25T01:23:24;4.20;99.90
1297;DHT22;641;48.492;9.184;2024-03-25T01:25:50;4.20;99.90
1297;DHT22;641;48.492;9.184;2024-03-25T01:28:16;4.30;99.90
1297;DHT22;641;48.492;9.184;2024-03-25T01:30:41;4.30;99.90
1297;DHT22;641;48.492;9.184;2024-03-25T01:33:07;4.30;99.90
1297;DHT22;641;48.492;9.184;2024-03-25T01:35:33;4.30;99.90
1297;DHT22;641;48.492;9.184;2024-03-25T01:37:59;4.20;99.90
1297;DHT22;641;48.492;9.184;2024-03-25T01:40:24;4.20;99.90
1297;DHT22;641;48.492;9.184;2024-03-25T01:43:01;4.20;99.90
1297;DHT22;641;48.492;9.184;2024-03-25T01:45:29;4.20;99.90
1297;DHT22;641;48.492;9.184;2024-03-25T01:47:56;4.20;99.90
1297;DHT22;641;48.492;9.184;2024-03-25T01:50:23;4.20;99.90
1297;DHT22;641;48.492;9.184;2024-03-25T01:52:49;4.30;99.90
1297;DHT22;641;48.492;9.184;2024-03-25T01:55:27;4.20;99.90
1297;DHT22;641;48.492;9.184;2024-03-25T01:57:53;4.20;99.90
1297;DHT22;641;48.492;9.184;2024-03-25T02:00:19;4.20;99.90
1297;DHT22;641;48.492;9.184;2024-03-25T02:02:46;4.30;99.90
1297;DHT22;641;48.492;9.184;2024-03-25T02:05:15;4.20;99.90
1297;DHT22;641;48.492;9.184;2024-03-25T02:07:42;4.20;99.90
1297;DHT22;641;48.492;9.184;2024-03-25T02:10:08;4.10;99.90
1297;DHT22;641;48.492;9.184;2024-03-25T02:12:43;4.10;99.90
1297;DHT22;641;48.492;9.184;2024-03-25T02:15:09;4.20;99.90
1297;DHT22;641;48.492;9.184;2024-03-25T02:17:36;4.20;99.90
1297;DHT22;641;48.492;9.184;2024-03-25T02:20:02;4.20;99.90
1297;DHT22;641;48.492;9.184;2024-03-25T02:22:29;4.20;99.90
1297;DHT22;641;48.492;9.184;2024-03-25T02:24:57;4.20;99.90
1297;DHT22;641;48.492;9.184;2024-03-25T02:27:26;4.20;99.90
1297;DHT22;641;48.492;9.184;2024-03-25T02:29:54;4.20;99.90
1297;DHT22;641;48.492;9.184;2024-03-25T02:32:19;4.20;99.90
1297;DHT22;641;48.492;9.184;2024-03-25T02:34:49;4.20;99.90
1297;DHT22;641;48.492;9.184;2024-03-25T02:37:14;4.20;99.90
1297;DHT22;641;48.492;9.184;2024-03-25T02:39:41;4.10;99.90
1297;DHT22;641;48.492;9.184;2024-03-25T02:42:06;4.00;99.90
1297;DHT22;641;48.492;9.184;2024-03-25T02:44:32;4.00;99.90
1297;DHT22;641;48.492;9.184;2024-03-25T02:46:58;4.00;99.90
1297;DHT22;641;48.492;9.184;2024-03-25T02:49:24;4.00;99.90
1297;DHT22;641;48.492;9.184;2024-03-25T02:51:50;4.00;99.90
1297;DHT22;641;48.492;9.184;2024-03-25T02:54:16;4.10;99.90
1297;DHT22;641;48.492;9.184;2024-03-25T02:56:42;4.10;99.90
1297;DHT22;641;48.492;9.184;2024-03-25T02:59:08;4.00;99.90
1297;DHT22;641;48.492;9.184;2024-03-25T03:01:33;4.00;99.90
1297;DHT22;641;48.492;9.184;2024-03-25T03:03:59;4.00;99.90
1297;DHT22;641;48.492;9.184;2024-03-25T03:06:24;4.00;99.90
1297;DHT22;641;48.492;9.184;2024-03-25T03:08:50;4.00;99.90
1297;DHT22;641;48.492;9.184;2024-03-25T03:11:16;3.90;99.90
1297;DHT22;641;48.492;9.184;2024-03-25T03:13:41;4.00;99.90
1297;DHT22;641;48.492;9.184;2024-03-25T03:16:07;4.00;99.90
1297;DHT22;641;48.492;9.184;2024-03-25T03:18:32;4.00;99.90
1297;DHT22;641;48.492;9.184;2024-03-25T03:20:58;4.00;99.90
1297;DHT22;641;48.492;9.184;2024-03-25T03:23:23;4.00;99.90
1297;DHT22;641;48.492;9.184;2024-03-25T03:25:49;4.00;99.90
1297;DHT22;641;48.492;9.184;2024-03-25T03:28:15;4.00;99.90
1297;DHT22;641;48.492;9.184;2024-03-25T03:30:41;4.10;99.90
1297;DHT22;641;48.492;9.184;2024-03-25T03:33:07;4.00;99.90
1297;DHT22;641;48.492;9.184;2024-03-25T03:35:33;4.00;99.90
1297;DHT22;641;48.492;9.184;2024-03-25T03:37:59;4.00;99.90
1297;DHT22;641;48.492;9.184;2024-03-25T03:40:24;3.90;99.90
1297;DHT22;641;48.492;9.184;2024-03-25T03:42:50;3.90;99.90
1297;DHT22;641;48.492;9.184;2024-03-25T03:45:15;3.90;99.90
1297;DHT22;641;48.492;9.184;2024-03-25T03:47:41;3.90;99.90
1297;DHT22;641;48.492;9.184;2024-03-25T03:50:07;3.90;99.90
1297;DHT22;641;48.492;9.184;2024-03-25T03:52:33;3.90;99.90
1297;DHT22;641;48.492;9.184;2024-03-25T03:54:58;3.90;99.90
1297;DHT22;641;48.492;9.184;2024-03-25T03:57:25;3.90;99.90
1297;DHT22;641;48.492;9.184;2024-03-25T03:59:51;3.80;99.90
1297;DHT22;641;48.492;9.184;2024-03-25T04:02:17;3.80;99.90
1297;DHT22;641;48.492;9.184;2024-03-25T04:04:43;3.90;99.90
1297;DHT22;641;48.492;9.184;2024-03-25T04:07:08;3.90;99.90
1297;DHT22;641;48.492;9.184;2024-03-25T04:09:34;3.90;99.90
1297;DHT22;641;48.492;9.184;2024-03-25T04:11:59;3.90;99.90
1297;DHT22;641;48.492;9.184;2024-03-25T04:14:26;3.90;99.90
1297;DHT22;641;48.492;9.184;2024-03-25T04:16:52;4.00;99.90
1297;DHT22;641;48.492;9.184;2024-03-25T04:19:19;3.90;99.90
1297;DHT22;641;48.492;9.184;2024-03-25T04:21:44;3.90;99.90
1297;DHT22;641;48.492;9.184;2024-03-25T04:24:10;4.00;99.90
1297;DHT22;641;48.492;9.184;2024-03-25T04:26:36;4.10;99.90
1297;DHT22;641;48.492;9.184;2024-03-25T04:29:01;4.10;99.90
1297;DHT22;641;48.492;9.184;2024-03-25T04:31:27;4.00;99.90
1297;DHT22;641;48.492;9.184;2024-03-25T04:33:52;4.00;99.90
1297;DHT22;641;48.492;9.184;2024-03-25T04:36:18;4.00;99.90
1297;DHT22;641;48.492;9.184;2024-03-25T04:38:43;3.90;99.90
1297;DHT22;641;48.492;9.184;2024-03-25T04:41:09;3.90;99.90
1297;DHT22;641;48.492;9.184;2024-03-25T04:43:34;3.90;99.90
1297;DHT22;641;48.492;9.184;2024-03-25T04:46:03;3.90;99.90
1297;DHT22;641;48.492;9.184;2024-03-25T04:48:29;3.90;99.90
1297;DHT22;641;48.492;9.184;2024-03-25T04:50:55;3.80;99.90
1297;DHT22;641;48.492;9.184;2024-03-25T04:53:20;3.80;99.90
1297;DHT22;641;48.492;9.184;2024-03-25T04:55:46;3.90;99.90
1297;DHT22;641;48.492;9.184;2024-03-25T04:58:11;3.80;99.90
1297;DHT22;641;48.492;9.184;2024-03-25T05:00:37;3.80;99.90
1297;DHT22;641;48.492;9.184;2024-03-25T05:03:03;3.70;99.90
1297;DHT22;641;48.492;9.184;2024-03-25T05:05:29;3.60;99.90
1297;DHT22;641;48.492;9.184;2024-03-25T05:07:55;3.60;99.90
1297;DHT22;641;48.492;9.184;2024-03-25T05:10:21;3.70;99.90
1297;DHT22;641;48.492;9.184;2024-03-25T05:12:46;3.60;99.90
1297;DHT22;641;48.492;9.184;2024-03-25T05:15:14;3.60;99.90
1297;DHT22;641;48.492;9.184;2024-03-25T05:17:41;3.60;99.90
1297;DHT22;641;48.492;9.184;2024-03-25T05:20:06;3.70;99.90
1297;DHT22;641;48.492;9.184;2024-03-25T05:22:32;3.60;99.90
1297;DHT22;641;48.492;9.184;2024-03-25T05:24:57;3.60;99.90
1297;DHT22;641;48.492;9.184;2024-03-25T05:27:23;3.60;99.90
1297;DHT22;641;48.492;9.184;2024-03-25T05:29:49;3.70;99.90
1297;DHT22;641;48.492;9.184;2024-03-25T05:32:15;3.70;99.90
1297;DHT22;641;48.492;9.184;2024-03-25T05:34:42;3.80;99.90
1297;DHT22;641;48.492;9.184;2024-03-25T05:37:08;3.80;99.90
1297;DHT22;641;48.492;9.184;2024-03-25T05:39:33;3.80;99.90
1297;DHT22;641;48.492;9.184;2024-03-25T05:41:59;3.70;99.90
1297;DHT22;641;48.492;9.184;2024-03-25T05:44:25;3.90;99.90
1297;DHT22;641;48.492;9.184;2024-03-25T05:46:50;4.00;99.90
1297;DHT22;641;48.492;9.184;2024-03-25T05:49:16;4.00;99.90
1297;DHT22;641;48.492;9.184;2024-03-25T05:51:41;3.90;99.90
1297;DHT22;641;48.492;9.184;2024-03-25T05:54:07;3.80;99.90
1297;DHT22;641;48.492;9.184;2024-03-25T05:56:32;3.90;99.90
1297;DHT22;641;48.492;9.184;2024-03-25T05:59:00;3.90;99.90
1297;DHT22;641;48.492;9.184;2024-03-25T06:01:26;3.80;99.90
1297;DHT22;641;48.492;9.184;2024-03-25T06:03:52;3.80;99.90
1297;DHT22;641;48.492;9.184;2024-03-25T06:06:18;3.90;99.90
1297;DHT22;641;48.492;9.184;2024-03-25T06:08:44;4.10;99.90
1297;DHT22;641;48.492;9.184;2024-03-25T06:11:09;3.90;99.90
1297;DHT22;641;48.492;9.184;2024-03-25T06:13:35;3.80;99.90
1297;DHT22;641;48.492;9.184;2024-03-25T06:16:00;3.80;99.90
1297;DHT22;641;48.492;9.184;2024-03-25T06:18:26;3.90;99.90
1297;DHT22;641;48.492;9.184;2024-03-25T06:20:52;4.00;99.90
1297;DHT22;641;48.492;9.184;2024-03-25T06:23:24;4.20;99.90
1297;DHT22;641;48.492;9.184;2024-03-25T06:25:51;4.30;99.90
1297;DHT22;641;48.492;9.184;2024-03-25T06:28:17;4.30;99.90
1297;DHT22;641;48.492;9.184;2024-03-25T06:30:42;4.40;99.90
1297;DHT22;641;48.492;9.184;2024-03-25T06:33:26;4.60;99.90
1297;DHT22;641;48.492;9.184;2024-03-25T06:36:11;4.70;99.90
1297;DHT22;641;48.492;9.184;2024-03-25T06:38:36;4.80;99.90
1297;DHT22;641;48.492;9.184;2024-03-25T06:41:02;4.80;99.90
1297;DHT22;641;48.492;9.184;2024-03-25T06:43:27;4.70;99.90
1297;DHT22;641;48.492;9.184;2024-03-25T06:45:53;4.70;99.90
1297;DHT22;641;48.492;9.184;2024-03-25T06:48:18;4.80;99.90
1297;DHT22;641;48.492;9.184;2024-03-25T06:50:57;4.90;99.90
1297;DHT22;641;48.492;9.184;2024-03-25T06:53:23;5.10;99.90
1297;DHT22;641;48.492;9.184;2024-03-25T06:55:56;5.10;99.90
1297;DHT22;641;48.492;9.184;2024-03-25T06:58:23;5.10;99.90
1297;DHT22;641;48.492;9.184;2024-03-25T07:00:49;5.20;99.90
1297;DHT22;641;48.492;9.184;2024-03-25T07:03:19;5.30;99.90
1297;DHT22;641;48.492;9.184;2024-03-25T07:05:45;5.40;99.90
1297;DHT22;641;48.492;9.184;2024-03-25T07:08:12;5.30;99.90
1297;DHT22;641;48.492;9.184;2024-03-25T07:10:37;5.30;99.90
1297;DHT22;641;48.492;9.184;2024-03-25T07:13:03;5.40;99.90
1297;DHT22;641;48.492;9.184;2024-03-25T07:15:31;5.40;99.90
1297;DHT22;641;48.492;9.184;2024-03-25T07:17:56;5.60;99.90
1297;DHT22;641;48.492;9.184;2024-03-25T07:20:23;5.60;99.90
1297;DHT22;641;48.492;9.184;2024-03-25T07:22:48;5.60;99.90
1297;DHT22;641;48.492;9.184;2024-03-25T07:25:14;5.60;99.90
1297;DHT22;641;48.492;9.184;2024-03-25T07:27:40;5.60;99.90
1297;DHT22;641;48.492;9.184;2024-03-25T07:30:06;5.50;99.90
1297;DHT22;641;48.492;9.184;2024-03-25T07:32:33;5.50;99.90
1297;DHT22;641;48.492;9.184;2024-03-25T07:34:59;5.50;99.90
1297;DHT22;641;48.492;9.184;2024-03-25T07:37:25;5.60;99.90
1297;DHT22;641;48.492;9.184;2024-03-25T07:39:50;5.80;99.90
1297;DHT22;641;48.492;9.184;2024-03-25T07:42:16;5.90;99.90
1297;DHT22;641;48.492;9.184;2024-03-25T07:44:42;6.10;99.90
1297;DHT22;641;48.492;9.184;2024-03-25T07:47:07;6.00;99.90
1297;DHT22;641;48.492;9.184;2024-03-25T07:49:33;5.90;99.90
1297;DHT22;641;48.492;9.184;2024-03-25T07:52:02;5.80;99.90
1297;DHT22;641;48.492;9.184;2024-03-25T07:54:28;6.00;99.90
1297;DHT22;641;48.492;9.184;2024-03-25T07:56:54;6.00;99.90
1297;DHT22;641;48.492;9.184;2024-03-25T07:59:20;6.10;99.90
1297;DHT22;641;48.492;9.184;2024-03-25T08:01:45;6.20;99.90
1297;DHT22;641;48.492;9.184;2024-03-25T08:04:11;6.10;99.90
1297;DHT22;641;48.492;9.184;2024-03-25T08:06:36;6.20;99.90
1297;DHT22;641;48.492;9.184;2024-03-25T08:09:02;6.20;99.90
1297;DHT22;641;48.492;9.184;2024-03-25T08:11:31;6.30;99.90
1297;DHT22;641;48.492;9.184;2024-03-25T08:13:56;6.20;99.90
1297;DHT22;641;48.492;9.184;2024-03-25T08:16:22;6.30;99.90
1297;DHT22;641;48.492;9.184;2024-03-25T08:18:47;6.50;99.90
1297;DHT22;641;48.492;9.184;2024-03-25T08:21:13;6.60;99.90
1297;DHT22;641;48.492;9.184;2024-03-25T08:23:38;6.80;99.90
1297;DHT22;641;48.492;9.184;2024-03-25T08:26:05;6.80;99.90
1297;DHT22;641;48.492;9.184;2024-03-25T08:28:31;6.90;99.90
1297;DHT22;641;48.492;9.184;2024-03-25T08:30:56;7.00;99.90
1297;DHT22;641;48.492;9.184;2024-03-25T08:33:22;6.90;99.90
1297;DHT22;641;48.492;9.184;2024-03-25T08:35:47;6.90;99.90
1297;DHT22;641;48.492;9.184;2024-03-25T08:38:13;7.00;99.90
1297;DHT22;641;48.492;9.184;2024-03-25T08:40:38;7.20;99.90
1297;DHT22;641;48.492;9.184;2024-03-25T08:43:06;7.20;99.90
1297;DHT22;641;48.492;9.184;2024-03-25T08:45:32;7.00;99.90
1297;DHT22;641;48.492;9.184;2024-03-25T08:47:57;7.00;99.90
1297;DHT22;641;48.492;9.184;2024-03-25T08:50:23;6.90;99.90
1297;DHT22;641;48.492;9.184;2024-03-25T08:52:49;7.00;99.90
1297;DHT22;641;48.492;9.184;2024-03-25T08:55:15;7.00;99.90
1297;DHT22;641;48.492;9.184;2024-03-25T08:57:40;7.10;99.90
1297;DHT22;641;48.492;9.184;2024-03-25T09:00:06;7.40;99.90
1297;DHT22;641;48.492;9.184;2024-03-25T09:02:38;7.60;99.90
1297;DHT22;641;48.492;9.184;2024-03-25T09:05:04;7.80;99.90
1297;DHT22;641;48.492;9.184;2024-03-25T09:07:31;7.90;99.90
1297;DHT22;641;48.492;9.184;2024-03-25T09:09:57;7.80;99.90
1297;DHT22;641;48.492;9.184;2024-03-25T09:12:41;7.80;99.90
1297;DHT22;641;48.492;9.184;2024-03-25T09:15:07;8.00;99.90
1297;DHT22;641;48.492;9.184;2024-03-25T09:17:32;8.00;99.90
1297;DHT22;641;48.492;9.184;2024-03-25T09:19:58;8.20;99.90
1297;DHT22;641;48.492;9.184;2024-03-25T09:22:23;8.30;99.90
1297;DHT22;641;48.492;9.184;2024-03-25T09:24:49;8.00;99.90
1297;DHT22;641;48.492;9.184;2024-03-25T09:27:15;7.80;99.90
1297;DHT22;641;48.492;9.184;2024-03-25T09:29:41;7.60;99.90
1297;DHT22;641;48.492;9.184;2024-03-25T09:32:07;7.80;99.90
1297;DHT22;641;48.492;9.184;2024-03-25T09:34:33;7.90;99.90
1297;DHT22;641;48.492;9.184;2024-03-25T09:36:59;7.80;99.90
1297;DHT22;641;48.492;9.184;2024-03-25T09:39:24;7.70;99.90
1297;DHT22;641;48.492;9.184;2024-03-25T09:41:51;7.90;99.90
1297;DHT22;641;48.492;9.184;2024-03-25T09:44:22;8.20;99.90
1297;DHT22;641;48.492;9.184;2024-03-25T09:46:49;8.30;99.90
1297;DHT22;641;48.492;9.184;2024-03-25T09:49:15;8.30;99.90
1297;DHT22;641;48.492;9.184;2024-03-25T09:51:41;8.40;99.90
1297;DHT22;641;48.492;9.184;2024-03-25T09:54:07;8.00;99.90
1297;DHT22;641;48.492;9.184;2024-03-25T09:56:33;7.70;99.90
1297;DHT22;641;48.492;9.184;2024-03-25T09:59:00;7.90;99.90
1297;DHT22;641;48.492;9.184;2024-03-25T10:01:25;8.00;99.90
1297;DHT22;641;48.492;9.184;2024-03-25T10:03:51;7.90;99.90
1297;DHT22;641;48.492;9.184;2024-03-25T10:06:16;7.90;99.90
1297;DHT22;641;48.492;9.184;2024-03-25T10:08:42;7.80;99.90
1297;DHT22;641;48.492;9.184;2024-03-25T10:11:07;7.80;99.90
1297;DHT22;641;48.492;9.184;2024-03-25T10:13:33;7.80;99.90
1297;DHT22;641;48.492;9.184;2024-03-25T10:15:59;7.80;99.90
1297;DHT22;641;48.492;9.184;2024-03-25T10:18:25;7.80;99.90
1297;DHT22;641;48.492;9.184;2024-03-25T10:20:51;7.80;99.90
1297;DHT22;641;48.492;9.184;2024-03-25T10:23:23;7.90;99.90
1297;DHT22;641;48.492;9.184;2024-03-25T10:25:52;8.10;99.90
1297;DHT22;641;48.492;9.184;2024-03-25T10:28:18;8.30;99.90
1297;DHT22;641;48.492;9.184;2024-03-25T10:30:43;8.40;99.90
1297;DHT22;641;48.492;9.184;2024-03-25T10:33:09;8.50;99.90
1297;DHT22;641;48.492;9.184;2024-03-25T10:35:36;8.50;99.90
1297;DHT22;641;48.492;9.184;2024-03-25T10:38:10;8.60;99.90
1297;DHT22;641;48.492;9.184;2024-03-25T10:40:39;8.60;99.00
1297;DHT22;641;48.492;9.184;2024-03-25T10:43:09;8.40;98.00
1297;DHT22;641;48.492;9.184;2024-03-25T10:45:43;8.20;98.00
1297;DHT22;641;48.492;9.184;2024-03-25T10:48:15;8.20;98.40
1297;DHT22;641;48.492;9.184;2024-03-25T10:50:43;8.10;99.00
1297;DHT22;641;48.492;9.184;2024-03-25T10:53:10;8.10;99.00
1297;DHT22;641;48.492;9.184;2024-03-25T10:55:36;7.90;97.10
1297;DHT22;641;48.492;9.184;2024-03-25T10:58:04;7.80;97.20
1297;DHT22;641;48.492;9.184;2024-03-25T11:00:30;8.00;97.10
1297;DHT22;641;48.492;9.184;2024-03-25T11:02:56;8.20;97.70
1297;DHT22;641;48.492;9.184;2024-03-25T11:05:23;8.40;97.70
1297;DHT22;641;48.492;9.184;2024-03-25T11:07:48;8.60;98.80
1297;DHT22;641;48.492;9.184;2024-03-25T11:10:15;8.80;99.00
1297;DHT22;641;48.492;9.184;2024-03-25T11:12:41;9.10;97.00
1297;DHT22;641;48.492;9.184;2024-03-25T11:15:08;9.00;95.30
1297;DHT22;641;48.492;9.184;2024-03-25T11:17:35;9.10;97.50
1297;DHT22;641;48.492;9.184;2024-03-25T11:20:11;9.30;97.10
1297;DHT22;641;48.492;9.184;2024-03-25T11:22:53;9.30;92.70
1297;DHT22;641;48.492;9.184;2024-03-25T11:25:20;8.80;90.90
1297;DHT22;641;48.492;9.184;2024-03-25T11:27:47;8.70;92.60
1297;DHT22;641;48.492;9.184;2024-03-25T11:30:14;8.90;91.70
1297;DHT22;641;48.492;9.184;2024-03-25T11:32:53;9.00;91.80
1297;DHT22;641;48.492;9.184;2024-03-25T11:35:20;9.00;91.80
1297;DHT22;641;48.492;9.184;2024-03-25T11:37:46;9.10;92.70
1297;DHT22;641;48.492;9.184;2024-03-25T11:40:13;9.30;91.60
1297;DHT22;641;48.492;9.184;2024-03-25T11:42:40;9.40;92.30
1297;DHT22;641;48.492;9.184;2024-03-25T11:45:07;9.50;91.20
1297;DHT22;641;48.492;9.184;2024-03-25T11:47:33;9.60;91.70
1297;DHT22;641;48.492;9.184;2024-03-25T11:49:59;9.70;92.50
1297;DHT22;641;48.492;9.184;2024-03-25T11:52:30;9.80;94.20
1297;DHT22;641;48.492;9.184;2024-03-25T11:54:56;10.00;91.40
1297;DHT22;641;48.492;9.184;2024-03-25T11:57:22;10.10;90.00
1297;DHT22;641;48.492;9.184;2024-03-25T11:59:48;10.20;90.50
1297;DHT22;641;48.492;9.184;2024-03-25T12:02:18;10.30;90.10
1297;DHT22;641;48.492;9.184;2024-03-25T12:04:44;10.30;90.00
1297;DHT22;641;48.492;9.184;2024-03-25T12:07:13;10.40;86.30
1297;DHT22;641;48.492;9.184;2024-03-25T12:09:38;10.50;86.70
1297;DHT22;641;48.492;9.184;2024-03-25T12:12:23;10.30;77.70
1297;DHT22;641;48.492;9.184;2024-03-25T12:14:49;10.30;81.20
1297;DHT22;641;48.492;9.184;2024-03-25T12:17:16;10.20;73.80
1297;DHT22;641;48.492;9.184;2024-03-25T12:19:41;10.20;79.10
1297;DHT22;641;48.492;9.184;2024-03-25T12:22:07;10.30;80.60
1297;DHT22;641;48.492;9.184;2024-03-25T12:24:33;10.40;78.50
1297;DHT22;641;48.492;9.184;2024-03-25T12:27:00;10.50;80.10
1297;DHT22;641;48.492;9.184;2024-03-25T12:29:26;10.50;73.80
1297;DHT22;641;48.492;9.184;2024-03-25T12:31:55;10.40;74.90
1297;DHT22;641;48.492;9.184;2024-03-25T12:34:21;10.50;75.70
1297;DHT22;641;48.492;9.184;2024-03-25T12:36:48;10.30;78.60
1297;DHT22;641;48.492;9.184;2024-03-25T12:39:19;10.40;83.10
1297;DHT22;641;48.492;9.184;2024-03-25T12:41:45;10.50;79.80
1297;DHT22;641;48.492;9.184;2024-03-25T12:44:14;10.50;80.00
1297;DHT22;641;48.492;9.184;2024-03-25T12:46:39;10.60;75.10
1297;DHT22;641;48.492;9.184;2024-03-25T12:49:06;10.40;74.50
1297;DHT22;641;48.492;9.184;2024-03-25T12:51:31;10.50;76.90
1297;DHT22;641;48.492;9.184;2024-03-25T12:53:57;10.60;78.20
1297;DHT22;641;48.492;9.184;2024-03-25T12:56:23;10.50;78.20
1297;DHT22;641;48.492;9.184;2024-03-25T12:58:49;10.60;79.20
1297;DHT22;641;48.492;9.184;2024-03-25T13:01:14;10.70;74.20
1297;DHT22;641;48.492;9.184;2024-03-25T13:03:40;10.60;74.50
1297;DHT22;641;48.492;9.184;2024-03-25T13:06:07;10.60;78.00
1297;DHT22;641;48.492;9.184;2024-03-25T13:08:33;10.60;73.40
1297;DHT22;641;48.492;9.184;2024-03-25T13:10:58;10.60;73.60
1297;DHT22;641;48.492;9.184;2024-03-25T13:13:24;10.70;75.00
1297;DHT22;641;48.492;9.184;2024-03-25T13:15:49;10.70;72.70
1297;DHT22;641;48.492;9.184;2024-03-25T13:18:15;10.70;73.10
1297;DHT22;641;48.492;9.184;2024-03-25T13:20:41;10.70;71.50
1297;DHT22;641;48.492;9.184;2024-03-25T13:23:06;10.80;71.70
1297;DHT22;641;48.492;9.184;2024-03-25T13:25:32;10.90;70.30
1297;DHT22;641;48.492;9.184;2024-03-25T13:27:57;10.90;66.30
1297;DHT22;641;48.492;9.184;2024-03-25T13:30:23;10.90;62.50
1297;DHT22;641;48.492;9.184;2024-03-25T13:32:50;10.70;60.30
1297;DHT22;641;48.492;9.184;2024-03-25T13:35:16;10.60;59.80
1297;DHT22;641;48.492;9.184;2024-03-25T13:37:41;10.80;64.60
1297;DHT22;641;48.492;9.184;2024-03-25T13:40:07;10.90;62.60
1297;DHT22;641;48.492;9.184;2024-03-25T13:42:34;10.90;61.60
1297;DHT22;641;48.492;9.184;2024-03-25T13:45:00;10.90;60.60
1297;DHT22;641;48.492;9.184;2024-03-25T13:47:25;10.90;68.10
1297;DHT22;641;48.492;9.184;2024-03-25T13:50:03;11.00;68.30
1297;DHT22;641;48.492;9.184;2024-03-25T13:52:29;11.00;67.70
1297;DHT22;641;48.492;9.184;2024-03-25T13:54:55;11.00;67.30
1297;DHT22;641;48.492;9.184;2024-03-25T13:57:21;11.10;59.60
1297;DHT22;641;48.492;9.184;2024-03-25T13:59:47;11.10;61.30
1297;DHT22;641;48.492;9.184;2024-03-25T14:02:13;11.00;61.60
1297;DHT22;641;48.492;9.184;2024-03-25T14:04:38;11.10;65.80
1297;DHT22;641;48.492;9.184;2024-03-25T14:07:04;11.20;64.30
1297;DHT22;641;48.492;9.184;2024-03-25T14:09:30;11.20;61.40
1297;DHT22;641;48.492;9.184;2024-03-25T14:11:56;11.30;63.50
1297;DHT22;641;48.492;9.184;2024-03-25T14:14:21;11.40;62.80
1297;DHT22;641;48.492;9.184;2024-03-25T14:16:47;11.50;61.80
1297;DHT22;641;48.492;9.184;2024-03-25T14:19:12;11.40;62.00
1297;DHT22;641;48.492;9.184;2024-03-25T14:21:38;11.50;60.30
1297;DHT22;641;48.492;9.184;2024-03-25T14:24:07;11.50;59.80
1297;DHT22;641;48.492;9.184;2024-03-25T14:26:32;11.50;56.40
1297;DHT22;641;48.492;9.184;2024-03-25T14:28:58;11.50;56.90
1297;DHT22;641;48.492;9.184;2024-03-25T14:31:25;11.50;56.50
1297;DHT22;641;48.492;9.184;2024-03-25T14:33:51;11.50;56.40
1297;DHT22;641;48.492;9.184;2024-03-25T14:36:17;11.50;57.20
1297;DHT22;641;48.492;9.184;2024-03-25T14:38:42;11.50;58.40
1297;DHT22;641;48.492;9.184;2024-03-25T14:41:11;11.60;57.50
1297;DHT22;641;48.492;9.184;2024-03-25T14:43:37;11.70;58.80
1297;DHT22;641;48.492;9.184;2024-03-25T14:46:03;11.70;56.60
1297;DHT22;641;48.492;9.184;2024-03-25T14:48:29;11.80;55.80
1297;DHT22;641;48.492;9.184;2024-03-25T14:50:54;11.80;55.60
1297;DHT22;641;48.492;9.184;2024-03-25T14:53:20;11.80;54.50
1297;DHT22;641;48.492;9.184;2024-03-25T14:55:45;11.80;55.80
1297;DHT22;641;48.492;9.184;2024-03-25T14:58:11;11.80;54.30
1297;DHT22;641;48.492;9.184;2024-03-25T15:00:36;11.70;53.50
1297;DHT22;641;48.492;9.184;2024-03-25T15:03:02;11.70;55.40
1297;DHT22;641;48.492;9.184;2024-03-25T15:05:28;11.60;54.40
1297;DHT22;641;48.492;9.184;2024-03-25T15:07:54;11.70;54.20
1297;DHT22;641;48.492;9.184;2024-03-25T15:10:19;11.80;55.90
1297;DHT22;641;48.492;9.184;2024-03-25T15:12:46;11.80;55.80
1297;DHT22;641;48.492;9.184;2024-03-25T15:15:11;11.80;54.10
1297;DHT22;641;48.492;9.184;2024-03-25T15:17:37;11.80;54.60
1297;DHT22;641;48.492;9.184;2024-03-25T15:20:06;11.70;55.60
1297;DHT22;641;48.492;9.184;2024-03-25T15:22:32;11.70;55.20
1297;DHT22;641;48.492;9.184;2024-03-25T15:24:58;11.70;56.60
1297;DHT22;641;48.492;9.184;2024-03-25T15:27:23;11.70;56.90
1297;DHT22;641;48.492;9.184;2024-03-25T15:29:49;11.70;56.40
1297;DHT22;641;48.492;9.184;2024-03-25T15:32:14;11.70;57.20
1297;DHT22;641;48.492;9.184;2024-03-25T15:34:41;11.70;58.80
1297;DHT22;641;48.492;9.184;2024-03-25T15:37:07;11.80;57.40
1297;DHT22;641;48.492;9.184;2024-03-25T15:39:32;11.80;56.10
1297;DHT22;641;48.492;9.184;2024-03-25T15:41:58;11.70;54.90
1297;DHT22;641;48.492;9.184;2024-03-25T15:44:23;11.70;55.60
1297;DHT22;641;48.492;9.184;2024-03-25T15:46:49;11.70;55.10
1297;DHT22;641;48.492;9.184;2024-03-25T15:49:14;11.60;54.40
1297;DHT22;641;48.492;9.184;2024-03-25T15:51:40;11.50;55.60
1297;DHT22;641;48.492;9.184;2024-03-25T15:54:06;11.50;54.80
1297;DHT22;641;48.492;9.184;2024-03-25T15:56:31;11.40;55.80
1297;DHT22;641;48.492;9.184;2024-03-25T15:58:57;11.40;57.00
1297;DHT22;641;48.492;9.184;2024-03-25T16:01:23;11.30;56.00
1297;DHT22;641;48.492;9.184;2024-03-25T16:03:49;11.20;56.50
1297;DHT22;641;48.492;9.184;2024-03-25T16:06:14;11.10;55.50
1297;DHT22;641;48.492;9.184;2024-03-25T16:08:41;11.10;55.50
1297;DHT22;641;48.492;9.184;2024-03-25T16:11:13;11.00;55.40
1297;DHT22;641;48.492;9.184;2024-03-25T16:13:39;10.90;54.70
1297;DHT22;641;48.492;9.184;2024-03-25T16:16:05;10.90;56.90
1297;DHT22;641;48.492;9.184;2024-03-25T16:18:31;10.80;56.40
1297;DHT22;641;48.492;9.184;2024-03-25T16:20:57;10.80;55.70
1297;DHT22;641;48.492;9.184;2024-03-25T16:23:23;10.80;56.40